sensor_id;sensor_type;location;lat;lon;timestamp;pressure;altitude;pressure_sealevel;temperature
60966;BMP180;46834;51.100;6.886;2023-02-01T00:02:06;101586.00;;;10.40
60966;BMP180;46834;51.100;6.886;2023-02-01T00:04:32;101597.00;;;10.40
60966;BMP180;46834;51.100;6.886;2023-02-01T00:06:58;101606.00;;;10.40
60966;BMP180;46834;51.100;6.886;2023-02-01T00:09:24;101590.00;;;10.40
60966;BMP180;46834;51.100;6.886;2023-02-01T00:11:49;101604.00;;;10.40
60966;BMP180;46834;51.100;6.886;2023-02-01T00:14:15;101601.00;;;10.40
60966;BMP180;46834;51.100;6.886;2023-02-01T00:16:41;101596.00;;;10.40
60966;BMP180;46834;51.100;6.886;2023-02-01T00:19:13;101601.00;;;10.40
60966;BMP180;46834;51.100;6.886;2023-02-01T00:21:39;101587.00;;;10.40
60966;BMP180;46834;51.100;6.886;2023-02-01T00:24:05;101598.00;;;10.40
60966;BMP180;46834;51.100;6.886;2023-02-01T00:26:41;101582.00;;;10.30
60966;BMP180;46834;51.100;6.886;2023-02-01T00:29:14;101581.00;;;10.40
60966;BMP180;46834;51.100;6.886;2023-02-01T00:31:41;101570.00;;;10.40
60966;BMP180;46834;51.100;6.886;2023-02-01T00:34:09;101572.00;;;10.40
60966;BMP180;46834;51.100;6.886;2023-02-01T00:36:35;101570.00;;;10.40
60966;BMP180;46834;51.100;6.886;2023-02-01T00:39:01;101567.00;;;10.40
60966;BMP180;46834;51.100;6.886;2023-02-01T00:41:27;101575.00;;;10.40
60966;BMP180;46834;51.100;6.886;2023-02-01T00:43:53;101571.00;;;10.40
60966;BMP180;46834;51.100;6.886;2023-02-01T00:46:20;101570.00;;;10.40
60966;BMP180;46834;51.100;6.886;2023-02-01T00:48:47;101566.00;;;10.40
60966;BMP180;46834;51.100;6.886;2023-02-01T00:51:17;101570.00;;;10.40
60966;BMP180;46834;51.100;6.886;2023-02-01T00:53:43;101558.00;;;10.30
60966;BMP180;46834;51.100;6.886;2023-02-01T00:56:10;101556.00;;;10.40
60966;BMP180;46834;51.100;6.886;2023-02-01T00:58:36;101550.00;;;10.30
60966;BMP180;46834;51.100;6.886;2023-02-01T01:01:09;101533.00;;;10.30
60966;BMP180;46834;51.100;6.886;2023-02-01T01:03:39;101523.00;;;10.30
60966;BMP180;46834;51.100;6.886;2023-02-01T01:06:12;101527.00;;;10.30
60966;BMP180;46834;51.100;6.886;2023-02-01T01:08:40;101519.00;;;10.30
60966;BMP180;46834;51.100;6.886;2023-02-01T01:11:17;101522.00;;;10.20
60966;BMP180;46834;51.100;6.886;2023-02-01T01:13:45;101527.00;;;10.20
60966;BMP180;46834;51.100;6.886;2023-02-01T01:16:11;101532.00;;;10.20
60966;BMP180;46834;51.100;6.886;2023-02-01T01:18:38;101528.00;;;10.20
60966;BMP180;46834;51.100;6.886;2023-02-01T01:21:06;101549.00;;;10.20
60966;BMP180;46834;51.100;6.886;2023-02-01T01:23:32;101561.00;;;10.20
60966;BMP180;46834;51.100;6.886;2023-02-01T01:25:58;101567.00;;;10.10
60966;BMP180;46834;51.100;6.886;2023-02-01T01:28:24;101569.00;;;10.20
60966;BMP180;46834;51.100;6.886;2023-02-01T01:30:50;101575.00;;;10.10
60966;BMP180;46834;51.100;6.886;2023-02-01T01:33:15;101579.00;;;10.10
60966;BMP180;46834;51.100;6.886;2023-02-01T01:35:41;101570.00;;;10.10
60966;BMP180;46834;51.100;6.886;2023-02-01T01:38:10;101570.00;;;10.10
60966;BMP180;46834;51.100;6.886;2023-02-01T01:40:35;101577.00;;;10.10
60966;BMP180;46834;51.100;6.886;2023-02-01T01:43:01;101568.00;;;10.10
60966;BMP180;46834;51.100;6.886;2023-02-01T01:45:34;101560.00;;;10.10
60966;BMP180;46834;51.100;6.886;2023-02-01T01:48:14;101568.00;;;10.10
60966;BMP180;46834;51.100;6.886;2023-02-01T01:50:49;101569.00;;;10.10
60966;BMP180;46834;51.100;6.886;2023-02-01T01:53:25;101572.00;;;10.10
60966;BMP180;46834;51.100;6.886;2023-02-01T01:55:54;101578.00;;;10.10
60966;BMP180;46834;51.100;6.886;2023-02-01T01:58:26;101568.00;;;10.10
60966;BMP180;46834;51.100;6.886;2023-02-01T02:00:54;101551.00;;;10.10
60966;BMP180;46834;51.100;6.886;2023-02-01T02:03:33;101543.00;;;10.10
60966;BMP180;46834;51.100;6.886;2023-02-01T02:06:03;101542.00;;;10.10
60966;BMP180;46834;51.100;6.886;2023-02-01T02:08:29;101545.00;;;10.10
60966;BMP180;46834;51.100;6.886;2023-02-01T02:10:56;101549.00;;;10.10
60966;BMP180;46834;51.100;6.886;2023-02-01T02:13:50;101542.00;;;10.00
60966;BMP180;46834;51.100;6.886;2023-02-01T02:21:56;101534.00;;;10.00
60966;BMP180;46834;51.100;6.886;2023-02-01T02:40:44;101520.00;;;10.00
60966;BMP180;46834;51.100;6.886;2023-02-01T02:43:04;101531.00;;;9.90
60966;BMP180;46834;51.100;6.886;2023-02-01T02:46:12;101513.00;;;9.90
60966;BMP180;46834;51.100;6.886;2023-02-01T02:49:34;101512.00;;;9.90
60966;BMP180;46834;51.100;6.886;2023-02-01T02:52:13;101494.00;;;9.90
60966;BMP180;46834;51.100;6.886;2023-02-01T02:55:03;101499.00;;;9.90
60966;BMP180;46834;51.100;6.886;2023-02-01T02:57:40;101490.00;;;9.90
60966;BMP180;46834;51.100;6.886;2023-02-01T03:00:33;101492.00;;;9.90
60966;BMP180;46834;51.100;6.886;2023-02-01T03:03:18;101499.00;;;9.90
60966;BMP180;46834;51.100;6.886;2023-02-01T03:06:02;101503.00;;;9.90
60966;BMP180;46834;51.100;6.886;2023-02-01T03:08:31;101504.00;;;9.90
60966;BMP180;46834;51.100;6.886;2023-02-01T03:11:09;101509.00;;;9.80
60966;BMP180;46834;51.100;6.886;2023-02-01T03:13:51;101499.00;;;9.80
60966;BMP180;46834;51.100;6.886;2023-02-01T03:16:51;101507.00;;;9.80
60966;BMP180;46834;51.100;6.886;2023-02-01T03:19:39;101509.00;;;9.80
60966;BMP180;46834;51.100;6.886;2023-02-01T03:22:14;101493.00;;;9.80
60966;BMP180;46834;51.100;6.886;2023-02-01T03:25:24;101491.00;;;9.70
60966;BMP180;46834;51.100;6.886;2023-02-01T03:28:03;101511.00;;;9.80
60966;BMP180;46834;51.100;6.886;2023-02-01T03:30:37;101492.00;;;9.80
60966;BMP180;46834;51.100;6.886;2023-02-01T03:33:07;101502.00;;;9.80
60966;BMP180;46834;51.100;6.886;2023-02-01T03:36:27;101490.00;;;9.70
60966;BMP180;46834;51.100;6.886;2023-02-01T03:39:19;101483.00;;;9.70
60966;BMP180;46834;51.100;6.886;2023-02-01T03:41:54;101488.00;;;9.70
60966;BMP180;46834;51.100;6.886;2023-02-01T03:44:33;101478.00;;;9.70
60966;BMP180;46834;51.100;6.886;2023-02-01T03:47:19;101472.00;;;9.70
60966;BMP180;46834;51.100;6.886;2023-02-01T03:49:55;101478.00;;;9.70
60966;BMP180;46834;51.100;6.886;2023-02-01T03:52:28;101461.00;;;9.70
60966;BMP180;46834;51.100;6.886;2023-02-01T03:54:57;101461.00;;;9.70
60966;BMP180;46834;51.100;6.886;2023-02-01T03:57:30;101468.00;;;9.70
60966;BMP180;46834;51.100;6.886;2023-02-01T04:00:25;101475.00;;;9.70
60966;BMP180;46834;51.100;6.886;2023-02-01T04:02:52;101475.00;;;9.70
60966;BMP180;46834;51.100;6.886;2023-02-01T04:05:19;101486.00;;;9.70
60966;BMP180;46834;51.100;6.886;2023-02-01T04:07:45;101480.00;;;9.80
60966;BMP180;46834;51.100;6.886;2023-02-01T04:10:12;101482.00;;;9.80
60966;BMP180;46834;51.100;6.886;2023-02-01T04:12:38;101485.00;;;9.80
60966;BMP180;46834;51.100;6.886;2023-02-01T04:15:05;101471.00;;;9.80
60966;BMP180;46834;51.100;6.886;2023-02-01T04:17:30;101469.00;;;9.80
60966;BMP180;46834;51.100;6.886;2023-02-01T04:19:56;101472.00;;;9.80
60966;BMP180;46834;51.100;6.886;2023-02-01T04:22:22;101449.00;;;9.80
60966;BMP180;46834;51.100;6.886;2023-02-01T04:24:48;101445.00;;;9.80
60966;BMP180;46834;51.100;6.886;2023-02-01T04:27:14;101437.00;;;9.80
60966;BMP180;46834;51.100;6.886;2023-02-01T04:29:40;101446.00;;;9.80
60966;BMP180;46834;51.100;6.886;2023-02-01T04:32:06;101438.00;;;9.80
60966;BMP180;46834;51.100;6.886;2023-02-01T04:34:32;101433.00;;;9.80
60966;BMP180;46834;51.100;6.886;2023-02-01T04:36:58;101417.00;;;9.80
60966;BMP180;46834;51.100;6.886;2023-02-01T04:39:23;101421.00;;;9.80
60966;BMP180;46834;51.100;6.886;2023-02-01T04:41:49;101412.00;;;9.80
60966;BMP180;46834;51.100;6.886;2023-02-01T04:44:17;101423.00;;;9.70
60966;BMP180;46834;51.100;6.886;2023-02-01T04:46:45;101423.00;;;9.70
60966;BMP180;46834;51.100;6.886;2023-02-01T04:49:12;101436.00;;;9.70
60966;BMP180;46834;51.100;6.886;2023-02-01T04:51:39;101421.00;;;9.70
60966;BMP180;46834;51.100;6.886;2023-02-01T04:54:04;101413.00;;;9.60
60966;BMP180;46834;51.100;6.886;2023-02-01T04:56:30;101422.00;;;9.60
60966;BMP180;46834;51.100;6.886;2023-02-01T04:58:56;101443.00;;;9.60
60966;BMP180;46834;51.100;6.886;2023-02-01T05:01:23;101441.00;;;9.60
60966;BMP180;46834;51.100;6.886;2023-02-01T05:03:50;101450.00;;;9.60
60966;BMP180;46834;51.100;6.886;2023-02-01T05:06:16;101439.00;;;9.50
60966;BMP180;46834;51.100;6.886;2023-02-01T05:08:42;101459.00;;;9.50
60966;BMP180;46834;51.100;6.886;2023-02-01T05:11:08;101457.00;;;9.50
60966;BMP180;46834;51.100;6.886;2023-02-01T05:13:54;101453.00;;;9.40
60966;BMP180;46834;51.100;6.886;2023-02-01T05:16:19;101458.00;;;9.40
60966;BMP180;46834;51.100;6.886;2023-02-01T05:18:45;101452.00;;;9.40
60966;BMP180;46834;51.100;6.886;2023-02-01T05:21:11;101452.00;;;9.40
60966;BMP180;46834;51.100;6.886;2023-02-01T05:23:36;101438.00;;;9.30
60966;BMP180;46834;51.100;6.886;2023-02-01T05:26:23;101443.00;;;9.30
60966;BMP180;46834;51.100;6.886;2023-02-01T05:28:49;101433.00;;;9.30
60966;BMP180;46834;51.100;6.886;2023-02-01T05:31:14;101453.00;;;9.30
60966;BMP180;46834;51.100;6.886;2023-02-01T05:33:40;101454.00;;;9.30
60966;BMP180;46834;51.100;6.886;2023-02-01T05:36:06;101467.00;;;9.30
60966;BMP180;46834;51.100;6.886;2023-02-01T05:38:32;101457.00;;;9.30
60966;BMP180;46834;51.100;6.886;2023-02-01T05:40:58;101460.00;;;9.30
60966;BMP180;46834;51.100;6.886;2023-02-01T05:43:24;101458.00;;;9.20
60966;BMP180;46834;51.100;6.886;2023-02-01T05:45:52;101451.00;;;9.20
60966;BMP180;46834;51.100;6.886;2023-02-01T05:48:17;101446.00;;;9.20
60966;BMP180;46834;51.100;6.886;2023-02-01T05:50:44;101450.00;;;9.20
60966;BMP180;46834;51.100;6.886;2023-02-01T05:53:10;101462.00;;;9.20
60966;BMP180;46834;51.100;6.886;2023-02-01T05:55:36;101457.00;;;9.20
60966;BMP180;46834;51.100;6.886;2023-02-01T05:58:03;101448.00;;;9.20
60966;BMP180;46834;51.100;6.886;2023-02-01T06:00:29;101455.00;;;9.20
60966;BMP180;46834;51.100;6.886;2023-02-01T06:02:54;101461.00;;;9.20
60966;BMP180;46834;51.100;6.886;2023-02-01T06:05:20;101450.00;;;9.20
60966;BMP180;46834;51.100;6.886;2023-02-01T06:07:46;101448.00;;;9.20
60966;BMP180;46834;51.100;6.886;2023-02-01T06:10:12;101445.00;;;9.20
60966;BMP180;46834;51.100;6.886;2023-02-01T06:12:38;101444.00;;;9.20
60966;BMP180;46834;51.100;6.886;2023-02-01T06:15:04;101436.00;;;9.20
60966;BMP180;46834;51.100;6.886;2023-02-01T06:17:30;101461.00;;;9.20
60966;BMP180;46834;51.100;6.886;2023-02-01T06:19:56;101450.00;;;9.20
60966;BMP180;46834;51.100;6.886;2023-02-01T06:22:21;101452.00;;;9.20
60966;BMP180;46834;51.100;6.886;2023-02-01T06:24:48;101466.00;;;9.20
60966;BMP180;46834;51.100;6.886;2023-02-01T06:27:14;101464.00;;;9.20
60966;BMP180;46834;51.100;6.886;2023-02-01T06:29:40;101471.00;;;9.10
60966;BMP180;46834;51.100;6.886;2023-02-01T06:32:06;101458.00;;;9.20
60966;BMP180;46834;51.100;6.886;2023-02-01T06:34:32;101448.00;;;9.20
60966;BMP180;46834;51.100;6.886;2023-02-01T06:36:58;101465.00;;;9.20
60966;BMP180;46834;51.100;6.886;2023-02-01T06:39:24;101463.00;;;9.20
60966;BMP180;46834;51.100;6.886;2023-02-01T06:41:50;101480.00;;;9.20
60966;BMP180;46834;51.100;6.886;2023-02-01T06:44:16;101488.00;;;9.20
60966;BMP180;46834;51.100;6.886;2023-02-01T06:46:42;101486.00;;;9.20
60966;BMP180;46834;51.100;6.886;2023-02-01T06:49:08;101485.00;;;9.30
60966;BMP180;46834;51.100;6.886;2023-02-01T06:51:34;101494.00;;;9.30
60966;BMP180;46834;51.100;6.886;2023-02-01T06:54:00;101483.00;;;9.30
60966;BMP180;46834;51.100;6.886;2023-02-01T06:56:27;101468.00;;;9.30
60966;BMP180;46834;51.100;6.886;2023-02-01T06:58:53;101479.00;;;9.30
60966;BMP180;46834;51.100;6.886;2023-02-01T07:01:19;101474.00;;;9.30
60966;BMP180;46834;51.100;6.886;2023-02-01T07:03:50;101483.00;;;9.30
60966;BMP180;46834;51.100;6.886;2023-02-01T07:06:17;101480.00;;;9.30
60966;BMP180;46834;51.100;6.886;2023-02-01T07:08:43;101483.00;;;9.30
60966;BMP180;46834;51.100;6.886;2023-02-01T07:11:12;101485.00;;;9.30
60966;BMP180;46834;51.100;6.886;2023-02-01T07:13:39;101494.00;;;9.40
60966;BMP180;46834;51.100;6.886;2023-02-01T07:16:10;101485.00;;;9.40
60966;BMP180;46834;51.100;6.886;2023-02-01T07:18:36;101503.00;;;9.40
60966;BMP180;46834;51.100;6.886;2023-02-01T07:21:02;101500.00;;;9.40
60966;BMP180;46834;51.100;6.886;2023-02-01T07:23:27;101518.00;;;9.40
60966;BMP180;46834;51.100;6.886;2023-02-01T07:25:59;101509.00;;;9.40
60966;BMP180;46834;51.100;6.886;2023-02-01T07:28:28;101518.00;;;9.40
60966;BMP180;46834;51.100;6.886;2023-02-01T07:30:54;101517.00;;;9.40
60966;BMP180;46834;51.100;6.886;2023-02-01T07:33:22;101520.00;;;9.40
60966;BMP180;46834;51.100;6.886;2023-02-01T07:35:50;101497.00;;;9.40
60966;BMP180;46834;51.100;6.886;2023-02-01T07:38:16;101507.00;;;9.50
60966;BMP180;46834;51.100;6.886;2023-02-01T07:40:43;101505.00;;;9.50
60966;BMP180;46834;51.100;6.886;2023-02-01T07:43:09;101513.00;;;9.50
60966;BMP180;46834;51.100;6.886;2023-02-01T07:45:36;101501.00;;;9.50
60966;BMP180;46834;51.100;6.886;2023-02-01T07:48:02;101506.00;;;9.50
60966;BMP180;46834;51.100;6.886;2023-02-01T07:50:29;101509.00;;;9.50
60966;BMP180;46834;51.100;6.886;2023-02-01T07:52:55;101510.00;;;9.50
60966;BMP180;46834;51.100;6.886;2023-02-01T07:55:21;101506.00;;;9.50
60966;BMP180;46834;51.100;6.886;2023-02-01T07:57:47;101518.00;;;9.50
60966;BMP180;46834;51.100;6.886;2023-02-01T08:00:13;101522.00;;;9.50
60966;BMP180;46834;51.100;6.886;2023-02-01T08:02:59;101526.00;;;9.50
60966;BMP180;46834;51.100;6.886;2023-02-01T08:05:25;101525.00;;;9.50
60966;BMP180;46834;51.100;6.886;2023-02-01T08:07:50;101533.00;;;9.50
60966;BMP180;46834;51.100;6.886;2023-02-01T08:10:18;101514.00;;;9.50
60966;BMP180;46834;51.100;6.886;2023-02-01T08:12:44;101517.00;;;9.50
60966;BMP180;46834;51.100;6.886;2023-02-01T08:15:17;101521.00;;;9.50
60966;BMP180;46834;51.100;6.886;2023-02-01T08:17:50;101501.00;;;9.50
60966;BMP180;46834;51.100;6.886;2023-02-01T08:20:18;101522.00;;;9.50
60966;BMP180;46834;51.100;6.886;2023-02-01T08:22:45;101508.00;;;9.60
60966;BMP180;46834;51.100;6.886;2023-02-01T08:25:10;101518.00;;;9.60
60966;BMP180;46834;51.100;6.886;2023-02-01T08:27:37;101526.00;;;9.60
60966;BMP180;46834;51.100;6.886;2023-02-01T08:30:04;101524.00;;;9.60
60966;BMP180;46834;51.100;6.886;2023-02-01T08:32:33;101529.00;;;9.60
60966;BMP180;46834;51.100;6.886;2023-02-01T08:34:59;101531.00;;;9.60
60966;BMP180;46834;51.100;6.886;2023-02-01T08:37:24;101535.00;;;9.60
60966;BMP180;46834;51.100;6.886;2023-02-01T08:39:50;101539.00;;;9.60
60966;BMP180;46834;51.100;6.886;2023-02-01T08:42:17;101539.00;;;9.60
60966;BMP180;46834;51.100;6.886;2023-02-01T08:45:03;101536.00;;;9.60
60966;BMP180;46834;51.100;6.886;2023-02-01T08:47:30;101555.00;;;9.70
60966;BMP180;46834;51.100;6.886;2023-02-01T08:49:56;101548.00;;;9.70
60966;BMP180;46834;51.100;6.886;2023-02-01T08:52:22;101556.00;;;9.70
60966;BMP180;46834;51.100;6.886;2023-02-01T08:54:48;101554.00;;;9.70
60966;BMP180;46834;51.100;6.886;2023-02-01T08:57:14;101568.00;;;9.70
60966;BMP180;46834;51.100;6.886;2023-02-01T08:59:40;101560.00;;;10.00
60966;BMP180;46834;51.100;6.886;2023-02-01T09:02:09;101566.00;;;9.90
60966;BMP180;46834;51.100;6.886;2023-02-01T09:04:36;101568.00;;;9.80
60966;BMP180;46834;51.100;6.886;2023-02-01T09:07:01;101552.00;;;9.80
60966;BMP180;46834;51.100;6.886;2023-02-01T09:09:28;101556.00;;;10.20
60966;BMP180;46834;51.100;6.886;2023-02-01T09:11:53;101538.00;;;10.00
60966;BMP180;46834;51.100;6.886;2023-02-01T09:14:19;101541.00;;;9.90
60966;BMP180;46834;51.100;6.886;2023-02-01T09:16:45;101553.00;;;10.00
60966;BMP180;46834;51.100;6.886;2023-02-01T09:19:10;101543.00;;;9.90
60966;BMP180;46834;51.100;6.886;2023-02-01T09:21:36;101543.00;;;9.90
60966;BMP180;46834;51.100;6.886;2023-02-01T09:24:02;101537.00;;;10.10
60966;BMP180;46834;51.100;6.886;2023-02-01T09:26:29;101558.00;;;10.20
60966;BMP180;46834;51.100;6.886;2023-02-01T09:28:55;101547.00;;;10.10
60966;BMP180;46834;51.100;6.886;2023-02-01T09:31:21;101559.00;;;10.40
60966;BMP180;46834;51.100;6.886;2023-02-01T09:33:46;101558.00;;;10.20
60966;BMP180;46834;51.100;6.886;2023-02-01T09:36:12;101559.00;;;10.10
60966;BMP180;46834;51.100;6.886;2023-02-01T09:38:37;101540.00;;;10.00
60966;BMP180;46834;51.100;6.886;2023-02-01T09:44:08;101555.00;;;9.90
60966;BMP180;46834;51.100;6.886;2023-02-01T09:46:35;101544.00;;;9.90
60966;BMP180;46834;51.100;6.886;2023-02-01T09:49:12;101530.00;;;9.90
60966;BMP180;46834;51.100;6.886;2023-02-01T09:51:45;101540.00;;;9.90
60966;BMP180;46834;51.100;6.886;2023-02-01T09:54:29;101544.00;;;9.90
60966;BMP180;46834;51.100;6.886;2023-02-01T09:57:06;101545.00;;;10.20
60966;BMP180;46834;51.100;6.886;2023-02-01T09:59:43;101548.00;;;10.40
60966;BMP180;46834;51.100;6.886;2023-02-01T10:02:24;101545.00;;;10.50
60966;BMP180;46834;51.100;6.886;2023-02-01T10:04:56;101548.00;;;10.60
60966;BMP180;46834;51.100;6.886;2023-02-01T10:08:10;101546.00;;;10.30
60966;BMP180;46834;51.100;6.886;2023-02-01T10:10:47;101542.00;;;10.20
60966;BMP180;46834;51.100;6.886;2023-02-01T10:13:48;101543.00;;;10.10
60966;BMP180;46834;51.100;6.886;2023-02-01T10:16:37;101528.00;;;10.00
60966;BMP180;46834;51.100;6.886;2023-02-01T10:19:37;101522.00;;;10.40
60966;BMP180;46834;51.100;6.886;2023-02-01T10:22:23;101527.00;;;10.30
60966;BMP180;46834;51.100;6.886;2023-02-01T10:25:28;101526.00;;;10.50
60966;BMP180;46834;51.100;6.886;2023-02-01T10:27:59;101534.00;;;10.50
60966;BMP180;46834;51.100;6.886;2023-02-01T10:30:37;101524.00;;;10.60
60966;BMP180;46834;51.100;6.886;2023-02-01T10:33:23;101531.00;;;10.60
60966;BMP180;46834;51.100;6.886;2023-02-01T10:36:00;101524.00;;;10.80
60966;BMP180;46834;51.100;6.886;2023-02-01T10:38:30;101523.00;;;11.00
60966;BMP180;46834;51.100;6.886;2023-02-01T10:41:15;101533.00;;;10.80
60966;BMP180;46834;51.100;6.886;2023-02-01T10:43:43;101517.00;;;10.70
60966;BMP180;46834;51.100;6.886;2023-02-01T10:46:10;101508.00;;;10.60
60966;BMP180;46834;51.100;6.886;2023-02-01T10:48:37;101509.00;;;10.60
60966;BMP180;46834;51.100;6.886;2023-02-01T10:51:12;101510.00;;;10.50
60966;BMP180;46834;51.100;6.886;2023-02-01T10:56:26;101505.00;;;10.40
60966;BMP180;46834;51.100;6.886;2023-02-01T10:59:02;101502.00;;;10.40
60966;BMP180;46834;51.100;6.886;2023-02-01T11:01:37;101509.00;;;10.40
60966;BMP180;46834;51.100;6.886;2023-02-01T11:04:26;101513.00;;;10.40
60966;BMP180;46834;51.100;6.886;2023-02-01T11:07:20;101502.00;;;10.40
60966;BMP180;46834;51.100;6.886;2023-02-01T11:09:53;101492.00;;;10.40
60966;BMP180;46834;51.100;6.886;2023-02-01T11:12:35;101499.00;;;10.40
60966;BMP180;46834;51.100;6.886;2023-02-01T11:15:20;101493.00;;;10.40
60966;BMP180;46834;51.100;6.886;2023-02-01T11:17:50;101500.00;;;10.40
60966;BMP180;46834;51.100;6.886;2023-02-01T11:20:40;101502.00;;;10.40
60966;BMP180;46834;51.100;6.886;2023-02-01T11:23:31;101488.00;;;10.40
60966;BMP180;46834;51.100;6.886;2023-02-01T11:26:28;101497.00;;;10.40
60966;BMP180;46834;51.100;6.886;2023-02-01T11:29:03;101493.00;;;10.40
60966;BMP180;46834;51.100;6.886;2023-02-01T11:31:32;101488.00;;;10.50
60966;BMP180;46834;51.100;6.886;2023-02-01T11:34:07;101490.00;;;10.50
60966;BMP180;46834;51.100;6.886;2023-02-01T11:36:36;101492.00;;;10.50
60966;BMP180;46834;51.100;6.886;2023-02-01T11:39:21;101482.00;;;10.50
60966;BMP180;46834;51.100;6.886;2023-02-01T11:41:59;101456.00;;;10.50
60966;BMP180;46834;51.100;6.886;2023-02-01T11:44:35;101458.00;;;10.50
60966;BMP180;46834;51.100;6.886;2023-02-01T11:47:24;101483.00;;;10.50
60966;BMP180;46834;51.100;6.886;2023-02-01T11:49:53;101470.00;;;10.60
60966;BMP180;46834;51.100;6.886;2023-02-01T11:52:39;101474.00;;;10.60
60966;BMP180;46834;51.100;6.886;2023-02-01T11:55:22;101456.00;;;10.60
60966;BMP180;46834;51.100;6.886;2023-02-01T12:30:14;101437.00;;;10.60
60966;BMP180;46834;51.100;6.886;2023-02-01T12:41:29;101429.00;;;10.70
60966;BMP180;46834;51.100;6.886;2023-02-01T12:46:53;101412.00;;;10.70
60966;BMP180;46834;51.100;6.886;2023-02-01T12:49:31;101409.00;;;10.70
60966;BMP180;46834;51.100;6.886;2023-02-01T12:57:45;101380.00;;;10.80
60966;BMP180;46834;51.100;6.886;2023-02-01T13:03:00;101382.00;;;10.80
60966;BMP180;46834;51.100;6.886;2023-02-01T13:08:47;101356.00;;;10.80
60966;BMP180;46834;51.100;6.886;2023-02-01T13:11:37;101372.00;;;10.80
60966;BMP180;46834;51.100;6.886;2023-02-01T13:14:22;101357.00;;;10.80
60966;BMP180;46834;51.100;6.886;2023-02-01T13:16:57;101366.00;;;10.80
60966;BMP180;46834;51.100;6.886;2023-02-01T13:20:16;101359.00;;;10.80
60966;BMP180;46834;51.100;6.886;2023-02-01T13:22:30;101370.00;;;10.80
60966;BMP180;46834;51.100;6.886;2023-02-01T13:25:13;101356.00;;;10.80
60966;BMP180;46834;51.100;6.886;2023-02-01T13:27:40;101370.00;;;10.90
60966;BMP180;46834;51.100;6.886;2023-02-01T13:30:10;101376.00;;;10.90
60966;BMP180;46834;51.100;6.886;2023-02-01T13:38:53;101366.00;;;10.80
60966;BMP180;46834;51.100;6.886;2023-02-01T13:41:59;101368.00;;;10.80
60966;BMP180;46834;51.100;6.886;2023-02-01T13:47:38;101363.00;;;10.80
60966;BMP180;46834;51.100;6.886;2023-02-01T13:50:35;101348.00;;;10.80
60966;BMP180;46834;51.100;6.886;2023-02-01T13:55:44;101370.00;;;10.90
60966;BMP180;46834;51.100;6.886;2023-02-01T13:58:20;101344.00;;;10.90
60966;BMP180;46834;51.100;6.886;2023-02-01T14:00:49;101364.00;;;10.90
60966;BMP180;46834;51.100;6.886;2023-02-01T14:03:22;101365.00;;;10.90
60966;BMP180;46834;51.100;6.886;2023-02-01T14:06:37;101366.00;;;10.90
60966;BMP180;46834;51.100;6.886;2023-02-01T14:19:26;101360.00;;;10.90
60966;BMP180;46834;51.100;6.886;2023-02-01T14:22:30;101366.00;;;10.90
60966;BMP180;46834;51.100;6.886;2023-02-01T14:24:56;101382.00;;;10.90
60966;BMP180;46834;51.100;6.886;2023-02-01T14:27:27;101375.00;;;10.90
60966;BMP180;46834;51.100;6.886;2023-02-01T14:29:58;101393.00;;;11.00
60966;BMP180;46834;51.100;6.886;2023-02-01T14:32:34;101368.00;;;10.90
60966;BMP180;46834;51.100;6.886;2023-02-01T14:35:05;101395.00;;;11.00
60966;BMP180;46834;51.100;6.886;2023-02-01T14:37:35;101383.00;;;11.00
60966;BMP180;46834;51.100;6.886;2023-02-01T14:40:20;101393.00;;;11.00
60966;BMP180;46834;51.100;6.886;2023-02-01T14:42:51;101397.00;;;11.00
60966;BMP180;46834;51.100;6.886;2023-02-01T14:47:54;101404.00;;;11.00
60966;BMP180;46834;51.100;6.886;2023-02-01T14:56:07;101394.00;;;10.90
60966;BMP180;46834;51.100;6.886;2023-02-01T15:01:35;101395.00;;;11.00
60966;BMP180;46834;51.100;6.886;2023-02-01T15:04:16;101406.00;;;10.90
60966;BMP180;46834;51.100;6.886;2023-02-01T15:07:07;101391.00;;;10.90
60966;BMP180;46834;51.100;6.886;2023-02-01T15:09:43;101407.00;;;11.00
60966;BMP180;46834;51.100;6.886;2023-02-01T15:14:47;101433.00;;;11.00
60966;BMP180;46834;51.100;6.886;2023-02-01T15:17:29;101414.00;;;11.00
60966;BMP180;46834;51.100;6.886;2023-02-01T15:20:27;101411.00;;;11.00
60966;BMP180;46834;51.100;6.886;2023-02-01T15:23:06;101405.00;;;11.00
60966;BMP180;46834;51.100;6.886;2023-02-01T15:25:37;101411.00;;;11.00
60966;BMP180;46834;51.100;6.886;2023-02-01T15:28:05;101408.00;;;11.00
60966;BMP180;46834;51.100;6.886;2023-02-01T15:30:35;101422.00;;;11.00
60966;BMP180;46834;51.100;6.886;2023-02-01T15:33:28;101420.00;;;11.00
60966;BMP180;46834;51.100;6.886;2023-02-01T15:36:10;101415.00;;;11.00
60966;BMP180;46834;51.100;6.886;2023-02-01T15:38:41;101402.00;;;11.00
60966;BMP180;46834;51.100;6.886;2023-02-01T15:41:20;101410.00;;;11.00
60966;BMP180;46834;51.100;6.886;2023-02-01T15:44:12;101405.00;;;11.00
60966;BMP180;46834;51.100;6.886;2023-02-01T15:46:46;101414.00;;;11.00
60966;BMP180;46834;51.100;6.886;2023-02-01T15:49:30;101404.00;;;11.00
60966;BMP180;46834;51.100;6.886;2023-02-01T15:51:59;101412.00;;;11.10
60966;BMP180;46834;51.100;6.886;2023-02-01T15:54:46;101419.00;;;11.00
60966;BMP180;46834;51.100;6.886;2023-02-01T15:57:26;101411.00;;;11.00
60966;BMP180;46834;51.100;6.886;2023-02-01T16:02:54;101422.00;;;11.00
60966;BMP180;46834;51.100;6.886;2023-02-01T16:05:40;101424.00;;;11.00
60966;BMP180;46834;51.100;6.886;2023-02-01T16:08:21;101423.00;;;11.00
60966;BMP180;46834;51.100;6.886;2023-02-01T16:10:51;101429.00;;;11.10
60966;BMP180;46834;51.100;6.886;2023-02-01T16:13:19;101420.00;;;11.10
60966;BMP180;46834;51.100;6.886;2023-02-01T16:15:46;101430.00;;;11.10
60966;BMP180;46834;51.100;6.886;2023-02-01T16:18:13;101429.00;;;11.10
60966;BMP180;46834;51.100;6.886;2023-02-01T16:20:41;101426.00;;;11.10
60966;BMP180;46834;51.100;6.886;2023-02-01T16:23:09;101423.00;;;11.10
60966;BMP180;46834;51.100;6.886;2023-02-01T16:25:36;101415.00;;;11.10
60966;BMP180;46834;51.100;6.886;2023-02-01T16:28:02;101425.00;;;11.10
60966;BMP180;46834;51.100;6.886;2023-02-01T16:30:28;101433.00;;;11.10
60966;BMP180;46834;51.100;6.886;2023-02-01T16:32:56;101419.00;;;11.10
60966;BMP180;46834;51.100;6.886;2023-02-01T16:37:49;101440.00;;;11.10